Aérodrome :
LOGIN :

S'inscrire | Disclaimer

   EN    FR    IT 

 










Légende :    VFR   VFR Marginal   IFR   IFR Intensif   IFR Très Intensif
Visi : 
Plafond : 
>= 8 km
>= 3000ft
5 à 8 km
1000 à 3000 ft
1500m à 5 km
500 à 1000 ft
800 à 1500m
200 à 500 ft
< 800m
< 200 ft
Symboles :   Orages  Brouillard  Fortes neiges  Fortes précipitations  Vent > 20 kt
SIGMETs :   Divers  Orages  Givrage  Turbulence  Onde Orograph.  Cendres Volcan.







- Altitude de l'aérodrome : 978 ft
- Code IATA : LNZ


LOWL - Linz

DERNIER METAR :
  • 170120Z AUTO VRB01KT 0300 R26/0150N -DZ FG FEW000 BKN001 07/07 Q1026

METARs EXPIRÉS :
  • 170050Z AUTO 27002KT 0300 R26/0250N FG SCT000 BKN001 08/07 Q1026
  • 170020Z AUTO VRB01KT 0400 R26/0600U FG VV000 08/08 Q1027
  • 162350Z AUTO VRB02KT 0800 0300E R26/0400D BCFG BKN000 08/08 Q1027
  • 162320Z AUTO 22002KT 2600 0600W R26/P1500D BCFG SCT000 08/07 Q1027
  • 162250Z AUTO 28003KT 3400 BR FEW002 09/08 Q1027

TAF AMD TAF LOWL
Valide du 17 à 00h jusqu'au 18 à 00h UTC


170023Z 1700/1724 09003KT 0100 FG BKN000 TX20/1715Z TN07/1705Z
TEMPO 1700/1710 VRB01KT 1200 BCFG SCT002
BECMG 1710/1712 CAVOK
BECMG 1719/1721 2500 BR BCFG SCT003
TEMPO 1721/1724 0200 FG BKN001
Pas de NOTAMs connus pour ce terrain.



MET'MAP, la Météo Aéronautique d'un coup d'oeil ! - Copyright ORBIFLY Décembre 2007 - Disclaimer

ORBIFLY MET'MAP TEAM :

Programmation & Développement : Alexandra Zaïnal
Conception & Développement : Baudouin d'Aumeries
Co-Programmation & Développement : Marc-Olivier Méhu
Soutien technique & logistique : Manuel Goepfert

Contact : metmap@orbifly.com




SOURCES & CREDITS :

   NOAA